sensor_id;sensor_type;location;lat;lon;timestamp;P1;durP1;ratioP1;P2;durP2;ratioP2
68310;SDS011;55157;51.036;17.058;2023-11-21T00:00:31;9.02;;;3.60;;
68310;SDS011;55157;51.036;17.058;2023-11-21T00:02:56;12.00;;;3.00;;
68310;SDS011;55157;51.036;17.058;2023-11-21T00:05:21;8.07;;;2.92;;
68310;SDS011;55157;51.036;17.058;2023-11-21T00:07:46;7.82;;;2.95;;
68310;SDS011;55157;51.036;17.058;2023-11-21T00:10:12;6.15;;;3.00;;
68310;SDS011;55157;51.036;17.058;2023-11-21T00:12:37;5.72;;;3.05;;
68310;SDS011;55157;51.036;17.058;2023-11-21T00:15:02;10.15;;;3.72;;
68310;SDS011;55157;51.036;17.058;2023-11-21T00:17:29;8.10;;;2.33;;
68310;SDS011;55157;51.036;17.058;2023-11-21T00:19:54;12.10;;;2.85;;
68310;SDS011;55157;51.036;17.058;2023-11-21T00:22:20;11.23;;;3.00;;
68310;SDS011;55157;51.036;17.058;2023-11-21T00:24:45;10.57;;;3.10;;
68310;SDS011;55157;51.036;17.058;2023-11-21T00:27:10;8.65;;;2.78;;
68310;SDS011;55157;51.036;17.058;2023-11-21T00:29:36;7.15;;;3.22;;
68310;SDS011;55157;51.036;17.058;2023-11-21T00:32:01;10.07;;;3.38;;
68310;SDS011;55157;51.036;17.058;2023-11-21T00:34:28;6.72;;;2.75;;
68310;SDS011;55157;51.036;17.058;2023-11-21T00:36:53;9.02;;;2.97;;
68310;SDS011;55157;51.036;17.058;2023-11-21T00:39:18;6.82;;;3.05;;
68310;SDS011;55157;51.036;17.058;2023-11-21T00:41:43;15.52;;;2.83;;
68310;SDS011;55157;51.036;17.058;2023-11-21T00:44:09;8.15;;;3.20;;
68310;SDS011;55157;51.036;17.058;2023-11-21T00:46:34;8.30;;;2.78;;
68310;SDS011;55157;51.036;17.058;2023-11-21T00:48:59;7.32;;;3.15;;
68310;SDS011;55157;51.036;17.058;2023-11-21T00:51:26;8.90;;;3.17;;
68310;SDS011;55157;51.036;17.058;2023-11-21T00:53:51;5.82;;;3.03;;
68310;SDS011;55157;51.036;17.058;2023-11-21T00:56:16;10.52;;;4.00;;
68310;SDS011;55157;51.036;17.058;2023-11-21T00:58:41;8.80;;;3.17;;
68310;SDS011;55157;51.036;17.058;2023-11-21T01:01:07;15.15;;;3.53;;
68310;SDS011;55157;51.036;17.058;2023-11-21T01:03:32;7.90;;;3.10;;
68310;SDS011;55157;51.036;17.058;2023-11-21T01:05:57;6.95;;;3.15;;
68310;SDS011;55157;51.036;17.058;2023-11-21T01:08:24;9.15;;;3.40;;
68310;SDS011;55157;51.036;17.058;2023-11-21T01:10:49;9.13;;;4.00;;
68310;SDS011;55157;51.036;17.058;2023-11-21T01:13:14;9.50;;;3.45;;
68310;SDS011;55157;51.036;17.058;2023-11-21T01:15:40;11.00;;;3.83;;
68310;SDS011;55157;51.036;17.058;2023-11-21T01:18:05;8.10;;;3.45;;
68310;SDS011;55157;51.036;17.058;2023-11-21T01:20:30;11.02;;;3.42;;
68310;SDS011;55157;51.036;17.058;2023-11-21T01:22:55;10.95;;;3.63;;
68310;SDS011;55157;51.036;17.058;2023-11-21T01:25:22;13.23;;;4.30;;
68310;SDS011;55157;51.036;17.058;2023-11-21T01:27:47;13.80;;;4.20;;
68310;SDS011;55157;51.036;17.058;2023-11-21T01:30:13;11.65;;;3.22;;
68310;SDS011;55157;51.036;17.058;2023-11-21T01:32:38;13.25;;;4.25;;
68310;SDS011;55157;51.036;17.058;2023-11-21T01:35:04;10.63;;;3.28;;
68310;SDS011;55157;51.036;17.058;2023-11-21T01:37:29;8.73;;;3.70;;
68310;SDS011;55157;51.036;17.058;2023-11-21T01:39:54;11.45;;;3.53;;
68310;SDS011;55157;51.036;17.058;2023-11-21T01:42:21;9.57;;;3.53;;
68310;SDS011;55157;51.036;17.058;2023-11-21T01:44:46;9.68;;;4.10;;
68310;SDS011;55157;51.036;17.058;2023-11-21T01:47:11;13.43;;;4.13;;
68310;SDS011;55157;51.036;17.058;2023-11-21T01:49:37;9.60;;;3.92;;
68310;SDS011;55157;51.036;17.058;2023-11-21T01:52:03;13.93;;;4.88;;
68310;SDS011;55157;51.036;17.058;2023-11-21T01:54:28;17.00;;;4.00;;
68310;SDS011;55157;51.036;17.058;2023-11-21T01:56:53;9.70;;;3.60;;
68310;SDS011;55157;51.036;17.058;2023-11-21T01:59:21;12.95;;;3.92;;
68310;SDS011;55157;51.036;17.058;2023-11-21T02:01:46;7.93;;;4.38;;
68310;SDS011;55157;51.036;17.058;2023-11-21T02:04:11;7.10;;;3.50;;
68310;SDS011;55157;51.036;17.058;2023-11-21T02:06:37;10.18;;;4.22;;
68310;SDS011;55157;51.036;17.058;2023-11-21T02:09:02;9.80;;;4.03;;
68310;SDS011;55157;51.036;17.058;2023-11-21T02:11:27;8.63;;;4.00;;
68310;SDS011;55157;51.036;17.058;2023-11-21T02:13:53;15.18;;;5.57;;
68310;SDS011;55157;51.036;17.058;2023-11-21T02:16:19;9.52;;;3.58;;
68310;SDS011;55157;51.036;17.058;2023-11-21T02:18:45;10.57;;;3.92;;
68310;SDS011;55157;51.036;17.058;2023-11-21T02:21:10;8.20;;;3.67;;
68310;SDS011;55157;51.036;17.058;2023-11-21T02:23:37;12.77;;;4.10;;
68310;SDS011;55157;51.036;17.058;2023-11-21T02:26:02;8.55;;;3.90;;
68310;SDS011;55157;51.036;17.058;2023-11-21T02:28:27;8.18;;;3.58;;
68310;SDS011;55157;51.036;17.058;2023-11-21T02:30:52;7.68;;;3.55;;
68310;SDS011;55157;51.036;17.058;2023-11-21T02:33:17;6.50;;;3.40;;
68310;SDS011;55157;51.036;17.058;2023-11-21T02:35:43;6.55;;;3.65;;
68310;SDS011;55157;51.036;17.058;2023-11-21T02:38:08;8.15;;;3.85;;
68310;SDS011;55157;51.036;17.058;2023-11-21T02:40:35;9.73;;;4.10;;
68310;SDS011;55157;51.036;17.058;2023-11-21T02:43:00;10.32;;;3.20;;
68310;SDS011;55157;51.036;17.058;2023-11-21T02:45:25;12.02;;;4.68;;
68310;SDS011;55157;51.036;17.058;2023-11-21T02:47:50;9.00;;;4.03;;
68310;SDS011;55157;51.036;17.058;2023-11-21T02:50:16;19.52;;;4.97;;
68310;SDS011;55157;51.036;17.058;2023-11-21T02:52:41;13.98;;;3.97;;
68310;SDS011;55157;51.036;17.058;2023-11-21T02:55:06;9.05;;;3.83;;
68310;SDS011;55157;51.036;17.058;2023-11-21T02:57:33;7.63;;;3.53;;
68310;SDS011;55157;51.036;17.058;2023-11-21T02:59:58;12.73;;;4.35;;
68310;SDS011;55157;51.036;17.058;2023-11-21T03:02:24;13.77;;;4.82;;
68310;SDS011;55157;51.036;17.058;2023-11-21T03:04:49;12.02;;;4.70;;
68310;SDS011;55157;51.036;17.058;2023-11-21T03:07:14;9.20;;;4.07;;
68310;SDS011;55157;51.036;17.058;2023-11-21T03:09:39;9.20;;;4.53;;
68310;SDS011;55157;51.036;17.058;2023-11-21T03:12:05;9.00;;;4.10;;
68310;SDS011;55157;51.036;17.058;2023-11-21T03:14:32;10.77;;;4.57;;
68310;SDS011;55157;51.036;17.058;2023-11-21T03:16:57;8.48;;;3.83;;
68310;SDS011;55157;51.036;17.058;2023-11-21T03:19:22;13.75;;;4.22;;
68310;SDS011;55157;51.036;17.058;2023-11-21T03:21:47;7.38;;;3.95;;
68310;SDS011;55157;51.036;17.058;2023-11-21T03:24:12;12.05;;;4.75;;
68310;SDS011;55157;51.036;17.058;2023-11-21T03:26:38;12.52;;;4.85;;
68310;SDS011;55157;51.036;17.058;2023-11-21T03:29:03;11.23;;;4.22;;
68310;SDS011;55157;51.036;17.058;2023-11-21T03:31:30;12.43;;;4.50;;
68310;SDS011;55157;51.036;17.058;2023-11-21T03:33:55;11.35;;;4.57;;
68310;SDS011;55157;51.036;17.058;2023-11-21T03:36:21;11.82;;;4.90;;
68310;SDS011;55157;51.036;17.058;2023-11-21T03:38:47;11.35;;;4.43;;
68310;SDS011;55157;51.036;17.058;2023-11-21T03:41:13;11.90;;;4.50;;
68310;SDS011;55157;51.036;17.058;2023-11-21T03:43:38;11.10;;;4.95;;
68310;SDS011;55157;51.036;17.058;2023-11-21T03:46:03;9.48;;;4.60;;
68310;SDS011;55157;51.036;17.058;2023-11-21T03:48:30;10.45;;;4.68;;
68310;SDS011;55157;51.036;17.058;2023-11-21T03:50:56;9.00;;;4.60;;
68310;SDS011;55157;51.036;17.058;2023-11-21T03:53:21;10.25;;;4.18;;
68310;SDS011;55157;51.036;17.058;2023-11-21T03:55:46;11.02;;;5.25;;
68310;SDS011;55157;51.036;17.058;2023-11-21T03:58:11;11.30;;;4.10;;
68310;SDS011;55157;51.036;17.058;2023-11-21T04:00:36;10.55;;;4.25;;
68310;SDS011;55157;51.036;17.058;2023-11-21T04:03:02;12.45;;;4.95;;
68310;SDS011;55157;51.036;17.058;2023-11-21T04:05:29;13.10;;;5.38;;
68310;SDS011;55157;51.036;17.058;2023-11-21T04:07:54;8.90;;;5.55;;
68310;SDS011;55157;51.036;17.058;2023-11-21T04:10:19;10.98;;;5.03;;
68310;SDS011;55157;51.036;17.058;2023-11-21T04:12:44;10.60;;;4.60;;
68310;SDS011;55157;51.036;17.058;2023-11-21T04:15:10;10.77;;;4.60;;
68310;SDS011;55157;51.036;17.058;2023-11-21T04:17:35;11.95;;;4.97;;
68310;SDS011;55157;51.036;17.058;2023-11-21T04:20:00;11.45;;;5.13;;
68310;SDS011;55157;51.036;17.058;2023-11-21T04:22:27;10.43;;;5.05;;
68310;SDS011;55157;51.036;17.058;2023-11-21T04:24:52;11.32;;;4.57;;
68310;SDS011;55157;51.036;17.058;2023-11-21T04:27:18;12.70;;;4.80;;
68310;SDS011;55157;51.036;17.058;2023-11-21T04:29:43;13.73;;;5.60;;
68310;SDS011;55157;51.036;17.058;2023-11-21T04:32:08;10.95;;;5.35;;
68310;SDS011;55157;51.036;17.058;2023-11-21T04:34:33;9.05;;;5.28;;
68310;SDS011;55157;51.036;17.058;2023-11-21T04:36:59;8.77;;;4.97;;
68310;SDS011;55157;51.036;17.058;2023-11-21T04:39:25;10.73;;;4.53;;
68310;SDS011;55157;51.036;17.058;2023-11-21T04:41:50;12.40;;;4.78;;
68310;SDS011;55157;51.036;17.058;2023-11-21T04:44:16;9.63;;;4.68;;
68310;SDS011;55157;51.036;17.058;2023-11-21T04:46:41;10.13;;;4.85;;
68310;SDS011;55157;51.036;17.058;2023-11-21T04:49:06;11.70;;;5.25;;
68310;SDS011;55157;51.036;17.058;2023-11-21T04:51:31;10.15;;;4.78;;
68310;SDS011;55157;51.036;17.058;2023-11-21T04:53:57;8.82;;;4.82;;
68310;SDS011;55157;51.036;17.058;2023-11-21T04:56:23;8.65;;;4.60;;
68310;SDS011;55157;51.036;17.058;2023-11-21T04:58:49;14.23;;;5.15;;
68310;SDS011;55157;51.036;17.058;2023-11-21T05:01:14;9.30;;;4.95;;
68310;SDS011;55157;51.036;17.058;2023-11-21T05:03:39;7.35;;;4.50;;
68310;SDS011;55157;51.036;17.058;2023-11-21T05:06:04;9.38;;;5.35;;
68310;SDS011;55157;51.036;17.058;2023-11-21T05:08:30;10.23;;;4.38;;
68310;SDS011;55157;51.036;17.058;2023-11-21T05:10:55;11.13;;;5.15;;
68310;SDS011;55157;51.036;17.058;2023-11-21T05:13:22;12.85;;;5.22;;
68310;SDS011;55157;51.036;17.058;2023-11-21T05:15:47;9.55;;;4.70;;
68310;SDS011;55157;51.036;17.058;2023-11-21T05:18:12;17.58;;;5.03;;
68310;SDS011;55157;51.036;17.058;2023-11-21T05:20:38;17.00;;;5.68;;
68310;SDS011;55157;51.036;17.058;2023-11-21T05:23:03;13.35;;;5.97;;
68310;SDS011;55157;51.036;17.058;2023-11-21T05:25:28;12.70;;;5.80;;
68310;SDS011;55157;51.036;17.058;2023-11-21T05:27:53;17.23;;;5.60;;
68310;SDS011;55157;51.036;17.058;2023-11-21T05:30:20;13.30;;;5.90;;
68310;SDS011;55157;51.036;17.058;2023-11-21T05:32:46;17.45;;;7.53;;
68310;SDS011;55157;51.036;17.058;2023-11-21T05:35:11;14.45;;;6.85;;
68310;SDS011;55157;51.036;17.058;2023-11-21T05:37:36;14.05;;;6.80;;
68310;SDS011;55157;51.036;17.058;2023-11-21T05:40:02;15.10;;;6.15;;
68310;SDS011;55157;51.036;17.058;2023-11-21T05:42:27;15.25;;;5.82;;
68310;SDS011;55157;51.036;17.058;2023-11-21T05:44:52;13.95;;;6.07;;
68310;SDS011;55157;51.036;17.058;2023-11-21T05:47:19;14.32;;;7.07;;
68310;SDS011;55157;51.036;17.058;2023-11-21T05:49:44;14.32;;;5.53;;
68310;SDS011;55157;51.036;17.058;2023-11-21T05:52:10;12.85;;;5.68;;
68310;SDS011;55157;51.036;17.058;2023-11-21T05:54:35;11.38;;;5.10;;
68310;SDS011;55157;51.036;17.058;2023-11-21T05:57:00;8.18;;;4.72;;
68310;SDS011;55157;51.036;17.058;2023-11-21T05:59:26;15.27;;;6.30;;
68310;SDS011;55157;51.036;17.058;2023-11-21T06:01:51;10.50;;;6.28;;
68310;SDS011;55157;51.036;17.058;2023-11-21T06:04:17;12.55;;;5.65;;
68310;SDS011;55157;51.036;17.058;2023-11-21T06:06:43;10.15;;;5.70;;
68310;SDS011;55157;51.036;17.058;2023-11-21T06:09:08;10.75;;;5.32;;
68310;SDS011;55157;51.036;17.058;2023-11-21T06:11:33;13.57;;;6.30;;
68310;SDS011;55157;51.036;17.058;2023-11-21T06:13:58;15.10;;;6.05;;
68310;SDS011;55157;51.036;17.058;2023-11-21T06:16:24;16.02;;;5.88;;
68310;SDS011;55157;51.036;17.058;2023-11-21T06:18:49;10.48;;;5.85;;
68310;SDS011;55157;51.036;17.058;2023-11-21T06:21:16;20.73;;;7.63;;
68310;SDS011;55157;51.036;17.058;2023-11-21T06:23:41;11.23;;;5.55;;
68310;SDS011;55157;51.036;17.058;2023-11-21T06:26:06;11.35;;;5.35;;
68310;SDS011;55157;51.036;17.058;2023-11-21T06:28:31;13.05;;;5.90;;
68310;SDS011;55157;51.036;17.058;2023-11-21T06:30:57;8.13;;;4.80;;
68310;SDS011;55157;51.036;17.058;2023-11-21T06:33:22;9.05;;;5.63;;
68310;SDS011;55157;51.036;17.058;2023-11-21T06:35:47;13.05;;;5.60;;
68310;SDS011;55157;51.036;17.058;2023-11-21T06:38:14;7.30;;;5.35;;
68310;SDS011;55157;51.036;17.058;2023-11-21T06:40:39;10.85;;;5.40;;
68310;SDS011;55157;51.036;17.058;2023-11-21T06:43:04;12.32;;;5.60;;
68310;SDS011;55157;51.036;17.058;2023-11-21T06:45:30;13.73;;;5.78;;
68310;SDS011;55157;51.036;17.058;2023-11-21T06:47:55;15.27;;;5.63;;
68310;SDS011;55157;51.036;17.058;2023-11-21T06:50:20;9.10;;;5.28;;
68310;SDS011;55157;51.036;17.058;2023-11-21T06:52:45;13.00;;;5.45;;
68310;SDS011;55157;51.036;17.058;2023-11-21T06:55:12;12.75;;;6.05;;
68310;SDS011;55157;51.036;17.058;2023-11-21T06:57:37;14.75;;;6.55;;
68310;SDS011;55157;51.036;17.058;2023-11-21T07:00:03;8.40;;;5.03;;
68310;SDS011;55157;51.036;17.058;2023-11-21T07:02:28;15.75;;;6.50;;
68310;SDS011;55157;51.036;17.058;2023-11-21T07:04:54;11.13;;;5.90;;
68310;SDS011;55157;51.036;17.058;2023-11-21T07:07:19;11.65;;;6.38;;
68310;SDS011;55157;51.036;17.058;2023-11-21T07:09:44;10.32;;;5.45;;
68310;SDS011;55157;51.036;17.058;2023-11-21T07:12:11;10.73;;;5.90;;
68310;SDS011;55157;51.036;17.058;2023-11-21T07:14:36;13.60;;;6.80;;
68310;SDS011;55157;51.036;17.058;2023-11-21T07:17:02;15.73;;;6.78;;
68310;SDS011;55157;51.036;17.058;2023-11-21T07:19:27;16.85;;;7.25;;
68310;SDS011;55157;51.036;17.058;2023-11-21T07:21:52;16.67;;;6.60;;
68310;SDS011;55157;51.036;17.058;2023-11-21T07:24:17;13.60;;;5.80;;
68310;SDS011;55157;51.036;17.058;2023-11-21T07:26:43;14.93;;;6.35;;
68310;SDS011;55157;51.036;17.058;2023-11-21T07:29:10;10.90;;;6.07;;
68310;SDS011;55157;51.036;17.058;2023-11-21T07:31:35;16.58;;;6.40;;
68310;SDS011;55157;51.036;17.058;2023-11-21T07:34:00;14.60;;;6.43;;
68310;SDS011;55157;51.036;17.058;2023-11-21T07:36:26;13.07;;;6.00;;
68310;SDS011;55157;51.036;17.058;2023-11-21T07:38:51;14.50;;;5.47;;
68310;SDS011;55157;51.036;17.058;2023-11-21T07:41:16;15.63;;;5.90;;
68310;SDS011;55157;51.036;17.058;2023-11-21T07:43:42;13.55;;;5.97;;
68310;SDS011;55157;51.036;17.058;2023-11-21T07:46:08;16.35;;;6.53;;
68310;SDS011;55157;51.036;17.058;2023-11-21T07:48:34;10.38;;;5.90;;
68310;SDS011;55157;51.036;17.058;2023-11-21T07:51:00;14.18;;;6.47;;
68310;SDS011;55157;51.036;17.058;2023-11-21T07:53:25;19.77;;;7.53;;
68310;SDS011;55157;51.036;17.058;2023-11-21T07:55:50;18.92;;;7.18;;
68310;SDS011;55157;51.036;17.058;2023-11-21T07:58:16;8.68;;;6.03;;
68310;SDS011;55157;51.036;17.058;2023-11-21T08:00:41;9.95;;;5.32;;
68310;SDS011;55157;51.036;17.058;2023-11-21T08:03:08;16.10;;;6.55;;
68310;SDS011;55157;51.036;17.058;2023-11-21T08:05:33;15.73;;;6.47;;
68310;SDS011;55157;51.036;17.058;2023-11-21T08:07:58;10.55;;;5.78;;
68310;SDS011;55157;51.036;17.058;2023-11-21T08:10:23;11.00;;;5.93;;
68310;SDS011;55157;51.036;17.058;2023-11-21T08:12:49;13.18;;;5.90;;
68310;SDS011;55157;51.036;17.058;2023-11-21T08:15:14;9.55;;;6.32;;
68310;SDS011;55157;51.036;17.058;2023-11-21T08:17:39;9.63;;;5.57;;
68310;SDS011;55157;51.036;17.058;2023-11-21T08:20:06;14.20;;;5.78;;
68310;SDS011;55157;51.036;17.058;2023-11-21T08:22:31;12.50;;;6.50;;
68310;SDS011;55157;51.036;17.058;2023-11-21T08:24:57;17.40;;;6.25;;
68310;SDS011;55157;51.036;17.058;2023-11-21T08:27:22;7.57;;;5.88;;
68310;SDS011;55157;51.036;17.058;2023-11-21T08:29:47;15.15;;;7.25;;
68310;SDS011;55157;51.036;17.058;2023-11-21T08:32:13;13.57;;;7.30;;
68310;SDS011;55157;51.036;17.058;2023-11-21T08:34:38;12.85;;;6.93;;
68310;SDS011;55157;51.036;17.058;2023-11-21T08:37:04;15.27;;;6.32;;
68310;SDS011;55157;51.036;17.058;2023-11-21T08:39:30;14.13;;;6.50;;
68310;SDS011;55157;51.036;17.058;2023-11-21T08:41:55;12.52;;;6.30;;
68310;SDS011;55157;51.036;17.058;2023-11-21T08:44:20;11.18;;;7.05;;
68310;SDS011;55157;51.036;17.058;2023-11-21T08:46:45;12.98;;;6.32;;
68310;SDS011;55157;51.036;17.058;2023-11-21T08:49:11;14.43;;;6.18;;
68310;SDS011;55157;51.036;17.058;2023-11-21T08:51:36;15.25;;;7.32;;
68310;SDS011;55157;51.036;17.058;2023-11-21T08:54:03;11.68;;;5.60;;
68310;SDS011;55157;51.036;17.058;2023-11-21T08:56:28;14.77;;;6.90;;
68310;SDS011;55157;51.036;17.058;2023-11-21T08:58:54;14.25;;;6.35;;
68310;SDS011;55157;51.036;17.058;2023-11-21T09:01:19;15.68;;;7.53;;
68310;SDS011;55157;51.036;17.058;2023-11-21T09:03:44;13.68;;;7.38;;
68310;SDS011;55157;51.036;17.058;2023-11-21T09:06:09;13.55;;;7.80;;
68310;SDS011;55157;51.036;17.058;2023-11-21T09:08:35;13.63;;;7.88;;
68310;SDS011;55157;51.036;17.058;2023-11-21T09:11:01;16.58;;;8.13;;
68310;SDS011;55157;51.036;17.058;2023-11-21T09:13:26;16.50;;;7.65;;
68310;SDS011;55157;51.036;17.058;2023-11-21T09:15:52;17.17;;;7.07;;
68310;SDS011;55157;51.036;17.058;2023-11-21T09:18:17;15.05;;;7.53;;
68310;SDS011;55157;51.036;17.058;2023-11-21T09:20:42;17.92;;;6.43;;
68310;SDS011;55157;51.036;17.058;2023-11-21T09:23:07;13.35;;;6.30;;
68310;SDS011;55157;51.036;17.058;2023-11-21T09:25:33;16.15;;;6.80;;
68310;SDS011;55157;51.036;17.058;2023-11-21T09:27:59;16.83;;;5.60;;
68310;SDS011;55157;51.036;17.058;2023-11-21T09:30:24;10.35;;;6.10;;
68310;SDS011;55157;51.036;17.058;2023-11-21T09:32:50;12.80;;;6.30;;
68310;SDS011;55157;51.036;17.058;2023-11-21T09:35:15;10.77;;;5.40;;
68310;SDS011;55157;51.036;17.058;2023-11-21T09:37:40;11.93;;;6.15;;
68310;SDS011;55157;51.036;17.058;2023-11-21T09:40:06;16.45;;;6.38;;
68310;SDS011;55157;51.036;17.058;2023-11-21T09:42:36;8.40;;;5.55;;
68310;SDS011;55157;51.036;17.058;2023-11-21T09:45:05;12.73;;;5.65;;
68310;SDS011;55157;51.036;17.058;2023-11-21T09:47:33;10.93;;;5.78;;
68310;SDS011;55157;51.036;17.058;2023-11-21T09:50:00;14.60;;;5.70;;
68310;SDS011;55157;51.036;17.058;2023-11-21T09:52:26;13.80;;;7.53;;
68310;SDS011;55157;51.036;17.058;2023-11-21T09:54:52;10.35;;;5.57;;
68310;SDS011;55157;51.036;17.058;2023-11-21T09:57:17;14.63;;;7.22;;
68310;SDS011;55157;51.036;17.058;2023-11-21T09:59:43;13.63;;;6.25;;
68310;SDS011;55157;51.036;17.058;2023-11-21T10:02:11;10.70;;;6.30;;
68310;SDS011;55157;51.036;17.058;2023-11-21T10:04:37;16.33;;;6.22;;
68310;SDS011;55157;51.036;17.058;2023-11-21T10:07:02;16.27;;;6.30;;
68310;SDS011;55157;51.036;17.058;2023-11-21T10:09:27;10.90;;;6.50;;
68310;SDS011;55157;51.036;17.058;2023-11-21T10:11:53;12.60;;;5.82;;
68310;SDS011;55157;51.036;17.058;2023-11-21T10:14:18;13.77;;;6.32;;
68310;SDS011;55157;51.036;17.058;2023-11-21T10:16:44;11.23;;;6.28;;
68310;SDS011;55157;51.036;17.058;2023-11-21T10:19:11;13.52;;;7.30;;
68310;SDS011;55157;51.036;17.058;2023-11-21T10:21:37;11.57;;;6.47;;
68310;SDS011;55157;51.036;17.058;2023-11-21T10:24:03;14.40;;;6.78;;
68310;SDS011;55157;51.036;17.058;2023-11-21T10:26:29;10.18;;;5.95;;
68310;SDS011;55157;51.036;17.058;2023-11-21T10:28:55;13.07;;;6.80;;
68310;SDS011;55157;51.036;17.058;2023-11-21T10:31:20;10.77;;;6.00;;
68310;SDS011;55157;51.036;17.058;2023-11-21T10:33:45;12.50;;;6.25;;
68310;SDS011;55157;51.036;17.058;2023-11-21T10:36:12;11.65;;;6.03;;
68310;SDS011;55157;51.036;17.058;2023-11-21T10:38:41;8.73;;;6.03;;
68310;SDS011;55157;51.036;17.058;2023-11-21T10:41:09;13.05;;;6.55;;
68310;SDS011;55157;51.036;17.058;2023-11-21T10:43:35;13.20;;;5.82;;
68310;SDS011;55157;51.036;17.058;2023-11-21T10:46:00;13.07;;;6.47;;
68310;SDS011;55157;51.036;17.058;2023-11-21T10:48:25;10.13;;;6.22;;
68310;SDS011;55157;51.036;17.058;2023-11-21T10:50:50;14.65;;;6.93;;
68310;SDS011;55157;51.036;17.058;2023-11-21T10:53:17;11.88;;;5.65;;
68310;SDS011;55157;51.036;17.058;2023-11-21T10:55:42;8.13;;;5.43;;
68310;SDS011;55157;51.036;17.058;2023-11-21T10:58:08;9.07;;;5.90;;
68310;SDS011;55157;51.036;17.058;2023-11-21T11:00:35;7.80;;;5.20;;
68310;SDS011;55157;51.036;17.058;2023-11-21T11:03:01;9.85;;;6.07;;
68310;SDS011;55157;51.036;17.058;2023-11-21T11:05:27;9.05;;;6.03;;
68310;SDS011;55157;51.036;17.058;2023-11-21T11:07:56;12.43;;;5.50;;
68310;SDS011;55157;51.036;17.058;2023-11-21T11:10:24;9.50;;;6.03;;
68310;SDS011;55157;51.036;17.058;2023-11-21T11:12:50;10.35;;;5.70;;
68310;SDS011;55157;51.036;17.058;2023-11-21T11:15:15;9.13;;;6.22;;
68310;SDS011;55157;51.036;17.058;2023-11-21T11:17:41;6.47;;;5.15;;
68310;SDS011;55157;51.036;17.058;2023-11-21T11:20:07;9.45;;;5.88;;
68310;SDS011;55157;51.036;17.058;2023-11-21T11:22:35;9.85;;;5.80;;
68310;SDS011;55157;51.036;17.058;2023-11-21T11:25:18;7.07;;;5.00;;
68310;SDS011;55157;51.036;17.058;2023-11-21T11:27:51;26.27;;;16.48;;
68310;SDS011;55157;51.036;17.058;2023-11-21T11:30:20;29.25;;;19.67;;
68310;SDS011;55157;51.036;17.058;2023-11-21T11:32:51;31.48;;;20.80;;
68310;SDS011;55157;51.036;17.058;2023-11-21T11:35:19;33.47;;;22.10;;
68310;SDS011;55157;51.036;17.058;2023-11-21T11:37:48;35.58;;;22.30;;
68310;SDS011;55157;51.036;17.058;2023-11-21T11:40:14;35.22;;;22.15;;
68310;SDS011;55157;51.036;17.058;2023-11-21T11:42:39;34.30;;;21.83;;
68310;SDS011;55157;51.036;17.058;2023-11-21T11:45:16;39.22;;;23.67;;
68310;SDS011;55157;51.036;17.058;2023-11-21T11:47:42;32.30;;;22.33;;
68310;SDS011;55157;51.036;17.058;2023-11-21T11:50:07;33.28;;;22.98;;
68310;SDS011;55157;51.036;17.058;2023-11-21T11:52:33;35.75;;;22.17;;
68310;SDS011;55157;51.036;17.058;2023-11-21T11:54:59;35.58;;;23.25;;
68310;SDS011;55157;51.036;17.058;2023-11-21T11:57:24;33.70;;;22.90;;
68310;SDS011;55157;51.036;17.058;2023-11-21T12:00:09;34.28;;;23.83;;
68310;SDS011;55157;51.036;17.058;2023-11-21T12:02:35;35.55;;;23.02;;
68310;SDS011;55157;51.036;17.058;2023-11-21T12:05:01;33.55;;;22.95;;
68310;SDS011;55157;51.036;17.058;2023-11-21T12:07:38;37.20;;;24.50;;
68310;SDS011;55157;51.036;17.058;2023-11-21T12:10:04;39.97;;;25.52;;
68310;SDS011;55157;51.036;17.058;2023-11-21T12:12:29;40.40;;;23.70;;
68310;SDS011;55157;51.036;17.058;2023-11-21T12:14:55;34.33;;;23.00;;
68310;SDS011;55157;51.036;17.058;2023-11-21T12:17:20;39.40;;;23.88;;
68310;SDS011;55157;51.036;17.058;2023-11-21T12:19:47;39.38;;;26.17;;
68310;SDS011;55157;51.036;17.058;2023-11-21T12:22:12;37.45;;;25.13;;
68310;SDS011;55157;51.036;17.058;2023-11-21T12:24:37;38.22;;;26.40;;
68310;SDS011;55157;51.036;17.058;2023-11-21T12:27:03;35.80;;;24.98;;
68310;SDS011;55157;51.036;17.058;2023-11-21T12:29:28;33.92;;;23.98;;
68310;SDS011;55157;51.036;17.058;2023-11-21T12:31:53;31.48;;;23.02;;
68310;SDS011;55157;51.036;17.058;2023-11-21T12:34:19;35.10;;;25.02;;
68310;SDS011;55157;51.036;17.058;2023-11-21T12:36:45;35.55;;;23.58;;
68310;SDS011;55157;51.036;17.058;2023-11-21T12:39:11;30.27;;;22.15;;
68310;SDS011;55157;51.036;17.058;2023-11-21T12:41:36;36.30;;;24.73;;
68310;SDS011;55157;51.036;17.058;2023-11-21T12:44:01;35.13;;;24.20;;
68310;SDS011;55157;51.036;17.058;2023-11-21T12:46:26;33.08;;;22.05;;
68310;SDS011;55157;51.036;17.058;2023-11-21T12:48:52;35.20;;;23.35;;
68310;SDS011;55157;51.036;17.058;2023-11-21T12:51:17;34.70;;;23.83;;
68310;SDS011;55157;51.036;17.058;2023-11-21T12:53:44;37.83;;;23.90;;
68310;SDS011;55157;51.036;17.058;2023-11-21T12:56:09;36.67;;;24.10;;
68310;SDS011;55157;51.036;17.058;2023-11-21T12:58:35;34.15;;;22.27;;
68310;SDS011;55157;51.036;17.058;2023-11-21T13:01:00;35.45;;;23.23;;
68310;SDS011;55157;51.036;17.058;2023-11-21T13:03:25;33.47;;;22.02;;
68310;SDS011;55157;51.036;17.058;2023-11-21T13:05:51;31.02;;;19.67;;
68310;SDS011;55157;51.036;17.058;2023-11-21T13:08:16;27.25;;;18.35;;
68310;SDS011;55157;51.036;17.058;2023-11-21T13:10:44;25.48;;;18.05;;
68310;SDS011;55157;51.036;17.058;2023-11-21T13:13:10;23.77;;;16.40;;
68310;SDS011;55157;51.036;17.058;2023-11-21T13:15:38;23.80;;;16.23;;
68310;SDS011;55157;51.036;17.058;2023-11-21T13:18:04;23.88;;;16.60;;
68310;SDS011;55157;51.036;17.058;2023-11-21T13:20:29;24.70;;;16.80;;
68310;SDS011;55157;51.036;17.058;2023-11-21T13:22:55;21.17;;;15.32;;
68310;SDS011;55157;51.036;17.058;2023-11-21T13:25:21;26.00;;;15.60;;
68310;SDS011;55157;51.036;17.058;2023-11-21T13:27:47;22.10;;;14.45;;
68310;SDS011;55157;51.036;17.058;2023-11-21T13:30:13;24.55;;;15.77;;
68310;SDS011;55157;51.036;17.058;2023-11-21T13:32:38;20.35;;;14.82;;
68310;SDS011;55157;51.036;17.058;2023-11-21T13:35:04;23.65;;;14.93;;
68310;SDS011;55157;51.036;17.058;2023-11-21T13:37:29;17.30;;;13.07;;
68310;SDS011;55157;51.036;17.058;2023-11-21T13:39:55;15.95;;;11.77;;
68310;SDS011;55157;51.036;17.058;2023-11-21T13:42:20;14.77;;;11.65;;
68310;SDS011;55157;51.036;17.058;2023-11-21T13:44:46;17.25;;;11.32;;
68310;SDS011;55157;51.036;17.058;2023-11-21T13:47:12;12.07;;;8.95;;
68310;SDS011;55157;51.036;17.058;2023-11-21T13:49:37;17.77;;;9.25;;
68310;SDS011;55157;51.036;17.058;2023-11-21T13:52:02;14.68;;;10.27;;
68310;SDS011;55157;51.036;17.058;2023-11-21T13:54:28;11.95;;;8.65;;
68310;SDS011;55157;51.036;17.058;2023-11-21T13:56:53;12.63;;;9.52;;
68310;SDS011;55157;51.036;17.058;2023-11-21T13:59:20;12.70;;;8.75;;
68310;SDS011;55157;51.036;17.058;2023-11-21T14:01:47;12.40;;;8.23;;
68310;SDS011;55157;51.036;17.058;2023-11-21T14:04:12;13.70;;;8.93;;
68310;SDS011;55157;51.036;17.058;2023-11-21T14:06:37;14.85;;;8.35;;
68310;SDS011;55157;51.036;17.058;2023-11-21T14:09:03;12.63;;;8.63;;
68310;SDS011;55157;51.036;17.058;2023-11-21T14:11:28;10.75;;;8.38;;
68310;SDS011;55157;51.036;17.058;2023-11-21T14:13:53;15.82;;;10.98;;